Time;durP1;ratioP1;P1;durP2;ratioP2;P2;SDS_P1;SDS_P2;PMS_P1;PMS_P2;Temp;Humidity;BMP_temperature;BMP_pressure;BME280_temperature;BME280_humidity;BME280_pressure;Samples;Min_cycle;Max_cycle;Signal;HPM_P1;HPM_P2
2022/04/24 00:00:01;;;;;;;1.00;0.10;;;29.40;94.00;;;;;;5111035;28;20099;-72
2022/04/24 00:02:28;;;;;;;2.17;0.30;;;29.50;93.70;;;;;;5111175;28;20042;-72
2022/04/24 00:04:56;;;;;;;1.20;0.20;;;29.40;92.50;;;;;;5112862;28;20047;-72
2022/04/24 00:07:23;;;;;;;3.97;0.35;;;29.30;93.80;;;;;;5110445;27;20050;-72
2022/04/24 00:09:50;;;;;;;1.10;0.30;;;29.30;92.50;;;;;;5111331;28;20035;-72
2022/04/24 00:12:18;;;;;;;0.30;0.20;;;29.50;93.70;;;;;;5110990;27;20466;-72
2022/04/24 00:14:46;;;;;;;2.42;0.25;;;30.00;93.30;;;;;;5105744;28;20031;-74
2022/04/24 00:17:20;;;;;;;0.38;0.20;;;30.50;91.30;;;;;;5104079;28;20031;-73
2022/04/24 00:19:48;;;;;;;0.52;0.30;;;30.40;91.50;;;;;;5102628;27;20027;-74
2022/04/24 00:22:16;;;;;;;0.65;0.20;;;30.50;90.50;;;;;;5100538;28;20847;-73
2022/04/24 00:24:43;;;;;;;0.43;0.13;;;30.30;90.90;;;;;;5108432;28;20035;-73
2022/04/24 00:27:11;;;;;;;1.45;0.80;;;30.40;90.70;;;;;;5111020;28;20085;-71
2022/04/24 00:29:43;;;;;;;0.57;0.25;;;30.40;90.70;;;;;;5107978;28;20431;-70
2022/04/24 00:32:10;;;;;;;1.25;0.93;;;30.70;90.30;;;;;;5083459;28;20036;-72
2022/04/24 00:34:38;;;;;;;1.33;0.10;;;29.60;90.50;;;;;;5107019;28;20043;-72
2022/04/24 00:37:05;;;;;;;1.65;0.20;;;28.90;90.70;;;;;;5101956;28;20043;-71
2022/04/24 00:39:33;;;;;;;0.65;0.20;;;28.70;91.20;;;;;;5113216;28;20019;-71
2022/04/24 00:42:00;;;;;;;2.55;0.30;;;29.00;91.70;;;;;;5109427;28;20496;-69
2022/04/24 00:44:28;;;;;;;2.00;0.20;;;30.10;90.90;;;;;;5111869;28;20031;-70
2022/04/24 00:47:14;;;;;;;0.75;0.10;;;29.90;90.10;;;;;;5111392;27;20047;-70
2022/04/24 00:49:42;;;;;;;0.20;0.10;;;29.30;91.00;;;;;;5109605;28;20561;-70
2022/04/24 00:52:10;;;;;;;0.95;0.10;;;29.50;90.10;;;;;;5120140;27;20399;-71
2022/04/24 00:54:39;;;;;;;0.50;0.20;;;30.00;90.70;;;;;;5132586;27;20489;-71
2022/04/24 00:57:12;;;;;;;0.65;0.28;;;29.90;89.40;;;;;;5104763;27;20077;-70
2022/04/24 00:59:40;;;;;;;0.10;0.10;;;29.00;88.90;;;;;;5106627;28;20401;-72
2022/04/24 01:02:09;;;;;;;0.95;0.30;;;28.70;90.00;;;;;;5100482;28;20035;-71
2022/04/24 01:04:37;;;;;;;0.10;0.03;;;28.00;90.00;;;;;;5101474;27;20055;-72
2022/04/24 01:07:05;;;;;;;1.30;0.22;;;28.80;90.30;;;;;;5098904;27;20027;-71
2022/04/24 01:09:34;;;;;;;0.30;0.20;;;28.50;88.60;;;;;;5098952;28;20026;-72
2022/04/24 01:12:02;;;;;;;0.65;0.10;;;27.80;89.80;;;;;;5101230;27;20172;-73
2022/04/24 01:14:30;;;;;;;0.50;0.15;;;26.70;90.40;;;;;;5100243;28;20036;-70
2022/04/24 01:16:59;;;;;;;2.08;0.13;;;25.80;91.00;;;;;;5099312;28;20024;-71
2022/04/24 01:19:28;;;;;;;1.40;0.10;;;25.50;91.50;;;;;;5105092;28;20150;-71
2022/04/24 01:21:56;;;;;;;0.28;0.10;;;26.40;91.50;;;;;;5101284;28;20027;-71
2022/04/24 01:24:26;;;;;;;0.13;0.00;;;27.60;90.20;;;;;;5099806;27;20042;-73
2022/04/24 01:26:53;;;;;;;0.32;0.20;;;28.60;90.00;;;;;;5098580;27;20020;-72
2022/04/24 01:29:21;;;;;;;0.98;0.47;;;29.50;87.80;;;;;;5102365;28;20031;-72
2022/04/24 01:31:49;;;;;;;0.85;0.20;;;29.60;84.50;;;;;;5099405;28;20049;-72
2022/04/24 01:34:17;;;;;;;0.55;0.40;;;29.60;82.50;;;;;;5100770;28;20050;-73
2022/04/24 01:36:44;;;;;;;0.90;0.10;;;29.50;84.10;;;;;;5100032;27;20692;-71
2022/04/24 01:39:14;;;;;;;0.38;0.00;;;29.80;84.30;;;;;;5100315;28;20026;-71
2022/04/24 01:41:41;;;;;;;0.45;0.10;;;29.80;83.70;;;;;;5097719;28;20051;-71
2022/04/24 01:44:08;;;;;;;0.32;0.05;;;30.30;82.40;;;;;;5099841;28;20539;-71
2022/04/24 01:46:36;;;;;;;0.50;0.10;;;30.40;82.80;;;;;;5097139;28;20036;-71
2022/04/24 01:49:03;;;;;;;1.13;0.10;;;30.20;82.00;;;;;;5100302;28;20075;-71
2022/04/24 01:51:31;;;;;;;1.00;0.20;;;30.10;83.20;;;;;;5100042;28;20038;-73
2022/04/24 01:53:58;;;;;;;0.22;0.10;;;29.70;82.70;;;;;;5100668;28;20042;-72
2022/04/24 01:56:25;;;;;;;0.10;0.10;;;29.50;83.10;;;;;;5099707;28;20048;-72
2022/04/24 01:58:53;;;;;;;1.15;0.20;;;29.80;83.40;;;;;;5100253;28;20023;-72
2022/04/24 02:01:20;;;;;;;1.35;0.13;;;30.00;83.10;;;;;;5102774;27;20023;-72
2022/04/24 02:03:47;;;;;;;1.50;0.13;;;30.40;82.00;;;;;;5099305;27;20055;-73
2022/04/24 02:06:15;;;;;;;0.93;0.10;;;30.00;82.00;;;;;;5106949;28;20026;-73
2022/04/24 02:08:42;;;;;;;0.75;0.20;;;29.80;80.90;;;;;;5111268;28;20027;-72
2022/04/24 02:11:09;;;;;;;1.13;0.10;;;29.50;79.30;;;;;;5109589;27;20020;-71
2022/04/24 02:13:37;;;;;;;2.42;0.30;;;28.90;79.00;;;;;;5111767;28;20115;-72
2022/04/24 02:16:05;;;;;;;0.57;0.10;;;28.30;78.20;;;;;;5096954;27;20031;-72
2022/04/24 02:18:33;;;;;;;0.00;0.00;;;27.90;79.20;;;;;;5135450;27;20027;-70
2022/04/24 02:21:00;;;;;;;0.32;0.20;;;27.90;79.40;;;;;;5127388;27;20020;-72
2022/04/24 02:23:27;;;;;;;0.45;0.20;;;27.80;80.40;;;;;;5130704;27;20496;-72
2022/04/24 02:25:55;;;;;;;0.98;0.15;;;28.10;80.80;;;;;;5121891;27;20542;-72
2022/04/24 02:28:22;;;;;;;0.15;0.15;;;28.50;80.20;;;;;;5113486;28;20027;-72
2022/04/24 02:30:50;;;;;;;0.30;0.10;;;28.70;79.30;;;;;;5106587;28;20463;-73
2022/04/24 02:33:17;;;;;;;0.73;0.10;;;28.70;80.60;;;;;;5112623;28;20028;-73
2022/04/24 02:35:44;;;;;;;0.32;0.10;;;28.80;79.30;;;;;;5113220;28;20123;-71
2022/04/24 02:38:12;;;;;;;1.60;0.10;;;28.50;79.50;;;;;;5110059;27;20031;-72
2022/04/24 02:40:39;;;;;;;0.20;0.20;;;28.60;79.10;;;;;;5111828;28;21361;-72
2022/04/24 02:43:07;;;;;;;0.90;0.32;;;28.90;79.10;;;;;;5112364;28;20035;-72
2022/04/24 02:45:34;;;;;;;0.20;0.10;;;28.70;77.80;;;;;;5112371;28;20016;-72
2022/04/24 02:48:03;;;;;;;0.68;0.10;;;28.50;79.20;;;;;;5109978;27;20044;-72
2022/04/24 02:50:30;;;;;;;0.63;0.40;;;28.60;79.20;;;;;;5114612;28;20043;-72
2022/04/24 02:52:58;;;;;;;1.95;0.20;;;28.60;80.00;;;;;;5107341;27;20041;-70
2022/04/24 02:55:26;;;;;;;0.40;0.10;;;28.40;79.70;;;;;;5096177;28;20024;-72
2022/04/24 02:57:54;;;;;;;1.40;0.10;;;28.40;80.70;;;;;;5115563;27;20035;-71
2022/04/24 03:00:38;;;;;;;0.93;0.10;;;28.70;80.50;;;;;;5113120;28;20022;-70
2022/04/24 03:03:07;;;;;;;0.20;0.10;;;28.80;80.60;;;;;;5109253;27;20039;-71
2022/04/24 03:05:35;;;;;;;0.25;0.03;;;29.00;79.40;;;;;;5110072;28;20518;-72
2022/04/24 03:08:02;;;;;;;0.45;0.17;;;29.10;78.40;;;;;;5102437;27;20524;-72
2022/04/24 03:10:30;;;;;;;1.23;0.20;;;29.30;78.40;;;;;;5103050;28;20039;-71
2022/04/24 03:12:57;;;;;;;1.00;0.10;;;29.20;79.10;;;;;;5103348;27;20046;-71
2022/04/24 03:15:25;;;;;;;0.03;0.03;;;29.20;78.50;;;;;;5103673;28;20031;-70
2022/04/24 03:17:54;;;;;;;0.70;0.30;;;28.90;78.30;;;;;;5099148;28;20020;-72
2022/04/24 03:20:25;;;;;;;1.30;0.10;;;29.00;79.20;;;;;;5102567;28;20062;-72
2022/04/24 03:22:53;;;;;;;0.20;0.10;;;28.80;79.80;;;;;;5098807;27;20027;-71
2022/04/24 03:25:20;;;;;;;0.63;0.17;;;28.80;79.70;;;;;;5104143;28;20121;-72
2022/04/24 03:27:48;;;;;;;0.30;0.13;;;28.70;78.60;;;;;;5101962;28;20088;-72
2022/04/24 03:30:16;;;;;;;1.00;0.10;;;28.60;79.50;;;;;;5101257;27;20024;-72
2022/04/24 03:32:43;;;;;;;0.63;0.17;;;28.50;79.90;;;;;;5101788;27;20067;-72
2022/04/24 03:35:11;;;;;;;0.80;0.20;;;28.60;80.00;;;;;;5102759;28;20055;-73
2022/04/24 03:37:39;;;;;;;0.57;0.43;;;28.30;79.60;;;;;;5102617;28;20574;-73
2022/04/24 03:40:08;;;;;;;0.30;0.15;;;28.00;79.20;;;;;;5104437;28;20657;-73
2022/04/24 03:42:36;;;;;;;0.98;0.10;;;27.70;79.40;;;;;;5100487;28;20498;-71
2022/04/24 03:45:11;;;;;;;0.30;0.05;;;27.40;80.60;;;;;;5103616;28;20090;-73
2022/04/24 03:47:39;;;;;;;0.55;0.10;;;27.10;80.80;;;;;;5099261;27;21253;-73
2022/04/24 03:50:07;;;;;;;1.10;0.20;;;26.90;82.30;;;;;;5102730;28;20145;-72
2022/04/24 03:52:35;;;;;;;1.38;0.20;;;26.80;83.10;;;;;;5103091;28;20040;-74
2022/04/24 03:55:03;;;;;;;1.30;0.30;;;26.60;82.90;;;;;;5106109;27;20027;-74
2022/04/24 03:57:31;;;;;;;1.05;0.30;;;26.50;83.00;;;;;;5102010;28;20019;-72
2022/04/24 03:59:58;;;;;;;1.50;0.20;;;26.10;83.60;;;;;;5102201;27;20035;-72
2022/04/24 04:02:26;;;;;;;2.55;0.30;;;26.10;84.10;;;;;;5102609;27;20035;-73
2022/04/24 04:04:53;;;;;;;0.85;0.25;;;26.50;84.20;;;;;;5101337;28;20023;-73
2022/04/24 04:07:20;;;;;;;2.35;0.20;;;26.70;83.80;;;;;;5101172;28;20507;-75
2022/04/24 04:09:49;;;;;;;3.28;0.30;;;26.70;84.40;;;;;;5102285;27;20072;-73
2022/04/24 04:12:17;;;;;;;2.78;0.20;;;26.70;84.90;;;;;;5101001;28;20088;-74
2022/04/24 04:14:44;;;;;;;1.25;0.20;;;26.60;84.30;;;;;;5101089;28;20520;-75
2022/04/24 04:17:12;;;;;;;1.50;0.20;;;26.70;85.60;;;;;;5101618;28;20103;-73
2022/04/24 04:19:39;;;;;;;0.82;0.40;;;26.50;86.00;;;;;;5105552;28;20080;-72
2022/04/24 04:22:06;;;;;;;1.58;0.47;;;26.10;87.00;;;;;;5098036;27;20030;-73
2022/04/24 04:24:34;;;;;;;1.30;0.20;;;26.10;87.40;;;;;;5109050;27;20030;-73
2022/04/24 04:27:01;;;;;;;2.60;0.50;;;26.10;87.20;;;;;;5102269;27;20019;-71
2022/04/24 04:29:28;;;;;;;0.90;0.50;;;26.10;87.50;;;;;;5107619;28;20504;-72
2022/04/24 04:31:56;;;;;;;1.20;0.22;;;26.00;87.40;;;;;;5115550;27;20035;-72
2022/04/24 04:34:23;;;;;;;0.50;0.20;;;25.90;88.20;;;;;;5105801;27;20442;-73
2022/04/24 04:36:50;;;;;;;1.52;0.22;;;25.70;87.70;;;;;;5099928;27;20039;-73
2022/04/24 04:39:18;;;;;;;1.95;0.30;;;25.50;88.30;;;;;;5097957;28;20027;-74
2022/04/24 04:41:45;;;;;;;1.15;0.22;;;25.50;88.40;;;;;;5100847;27;20111;-73
2022/04/24 04:44:12;;;;;;;0.45;0.20;;;25.50;88.30;;;;;;5101440;27;20568;-73
2022/04/24 04:46:39;;;;;;;2.63;0.30;;;25.60;88.40;;;;;;5082355;28;20042;-72
2022/04/24 04:49:07;;;;;;;0.95;0.10;;;25.70;89.00;;;;;;5101177;28;20054;-73
2022/04/24 04:51:34;;;;;;;1.42;0.30;;;25.70;88.80;;;;;;5100429;27;20156;-73
2022/04/24 04:54:02;;;;;;;1.10;0.30;;;25.60;89.40;;;;;;5099056;27;20038;-73
2022/04/24 04:56:29;;;;;;;1.08;0.40;;;25.50;89.60;;;;;;5094740;27;20561;-73
2022/04/24 04:58:56;;;;;;;0.38;0.20;;;25.30;90.10;;;;;;5099442;28;20055;-71
2022/04/24 05:01:24;;;;;;;0.93;0.43;;;25.20;90.30;;;;;;5109339;28;20023;-72
2022/04/24 05:03:51;;;;;;;1.45;0.38;;;25.00;90.60;;;;;;5098796;28;20035;-74
2022/04/24 05:06:21;;;;;;;2.03;0.30;;;24.90;90.80;;;;;;5105015;28;20020;-73
2022/04/24 05:08:48;;;;;;;2.05;0.32;;;24.80;91.10;;;;;;5106965;28;20082;-73
2022/04/24 05:11:16;;;;;;;0.38;0.10;;;24.70;91.30;;;;;;5101731;27;20028;-72
2022/04/24 05:13:43;;;;;;;1.85;0.10;;;24.60;91.20;;;;;;5099810;27;20078;-73
2022/04/24 05:16:10;;;;;;;0.93;0.30;;;24.60;91.40;;;;;;5102603;27;20883;-72
2022/04/24 05:18:38;;;;;;;0.68;0.17;;;24.60;91.40;;;;;;5100671;28;20019;-71
2022/04/24 05:21:05;;;;;;;0.98;0.38;;;24.60;91.30;;;;;;5102696;27;20028;-74
2022/04/24 05:23:32;;;;;;;0.43;0.20;;;24.50;91.20;;;;;;5130430;27;20023;-73
2022/04/24 05:26:00;;;;;;;0.95;0.40;;;24.40;91.30;;;;;;5126485;27;20034;-73
2022/04/24 05:28:27;;;;;;;1.38;0.25;;;24.40;91.30;;;;;;5085821;28;20047;-73
2022/04/24 05:30:54;;;;;;;0.65;0.40;;;24.30;91.30;;;;;;5096905;28;20054;-73
2022/04/24 05:33:22;;;;;;;0.88;0.13;;;24.30;91.40;;;;;;5099989;28;20063;-71
2022/04/24 05:35:50;;;;;;;0.93;0.17;;;24.30;91.40;;;;;;5098016;28;20019;-73
2022/04/24 05:38:17;;;;;;;1.27;0.10;;;24.40;91.20;;;;;;5100285;28;20039;-71
2022/04/24 05:40:44;;;;;;;0.63;0.17;;;24.40;91.20;;;;;;5100822;28;20024;-70
2022/04/24 05:43:11;;;;;;;1.75;0.10;;;24.40;91.20;;;;;;5100323;28;20032;-70
2022/04/24 05:45:39;;;;;;;0.98;0.28;;;24.40;91.10;;;;;;5099124;28;20020;-70
2022/04/24 05:48:06;;;;;;;0.15;0.10;;;24.30;91.10;;;;;;5100155;28;20078;-72
2022/04/24 05:50:34;;;;;;;0.95;0.10;;;24.30;91.10;;;;;;5099853;28;20775;-72
2022/04/24 05:53:02;;;;;;;0.30;0.20;;;24.20;91.00;;;;;;5099516;28;20065;-71
2022/04/24 05:55:29;;;;;;;0.20;0.10;;;24.30;90.90;;;;;;5099774;28;20035;-72
2022/04/24 05:57:57;;;;;;;1.40;0.30;;;24.30;91.10;;;;;;5101048;28;20024;-71
2022/04/24 06:00:24;;;;;;;1.67;0.20;;;24.30;90.90;;;;;;5111010;28;20038;-72
2022/04/24 06:02:52;;;;;;;0.80;0.57;;;24.20;91.10;;;;;;5098309;28;20026;-70
2022/04/24 06:05:20;;;;;;;0.32;0.17;;;24.30;91.10;;;;;;5098567;28;20036;-73
2022/04/24 06:07:48;;;;;;;0.30;0.10;;;24.20;91.30;;;;;;5103344;28;20044;-73
2022/04/24 06:10:16;;;;;;;1.67;0.28;;;24.10;91.40;;;;;;5109375;28;20545;-73
2022/04/24 06:12:55;;;;;;;1.73;0.52;;;24.10;91.30;;;;;;5098321;28;20044;-72
2022/04/24 06:15:24;;;;;;;1.05;0.30;;;24.00;91.30;;;;;;5097628;28;20146;-71
2022/04/24 06:17:54;;;;;;;1.98;0.20;;;23.80;91.40;;;;;;5099841;28;20081;-71
2022/04/24 06:20:23;;;;;;;2.28;0.28;;;23.60;91.50;;;;;;5099805;28;20463;-71
2022/04/24 06:22:53;;;;;;;0.30;0.10;;;23.60;91.60;;;;;;5102403;28;20181;-70
2022/04/24 06:25:31;;;;;;;0.43;0.10;;;23.50;91.70;;;;;;5099955;28;20068;-70
2022/04/24 06:27:59;;;;;;;2.25;0.20;;;23.40;91.90;;;;;;5104903;28;20026;-71
2022/04/24 06:30:28;;;;;;;0.35;0.03;;;23.50;91.90;;;;;;5129275;28;22527;-71
2022/04/24 06:33:01;;;;;;;1.35;0.20;;;23.50;92.10;;;;;;5108683;28;20489;-71
2022/04/24 06:35:28;;;;;;;0.77;0.10;;;23.50;91.50;;;;;;5100489;28;20043;-72
2022/04/24 06:37:56;;;;;;;3.63;0.15;;;23.30;91.70;;;;;;5099409;28;20024;-72
2022/04/24 06:40:25;;;;;;;1.10;0.20;;;23.20;92.00;;;;;;5100765;28;20023;-73
2022/04/24 06:42:59;;;;;;;0.32;0.20;;;23.00;92.50;;;;;;5096025;28;20079;-74
2022/04/24 06:45:30;;;;;;;1.10;0.10;;;22.80;93.00;;;;;;5099167;28;20027;-72
2022/04/24 06:48:01;;;;;;;1.17;0.20;;;22.70;93.00;;;;;;5103634;28;20059;-72
2022/04/24 06:50:29;;;;;;;1.25;0.15;;;22.70;93.30;;;;;;5109109;28;20063;-73
2022/04/24 06:53:05;;;;;;;0.60;0.20;;;22.60;93.40;;;;;;5104993;27;20512;-73
2022/04/24 06:55:34;;;;;;;1.83;0.28;;;22.60;93.60;;;;;;5099454;27;20032;-73
2022/04/24 06:58:03;;;;;;;0.10;0.00;;;22.60;93.70;;;;;;5103256;27;20058;-73
2022/04/24 07:00:32;;;;;;;0.85;0.20;;;22.60;93.80;;;;;;5102657;27;20016;-72
2022/04/24 07:02:59;;;;;;;1.35;0.30;;;22.40;94.00;;;;;;5101207;27;20028;-72
2022/04/24 07:05:28;;;;;;;0.98;0.20;;;22.30;94.40;;;;;;5103034;27;20098;-71
2022/04/24 07:07:55;;;;;;;0.65;0.65;;;22.10;94.70;;;;;;5100015;28;20473;-71
2022/04/24 07:10:22;;;;;;;1.80;0.32;;;22.10;94.80;;;;;;5102880;27;20054;-73
2022/04/24 07:12:54;;;;;;;2.33;0.43;;;22.00;94.90;;;;;;5101240;28;20496;-73
2022/04/24 07:15:23;;;;;;;0.25;0.13;;;21.90;95.00;;;;;;5102134;28;20073;-73
2022/04/24 07:17:52;;;;;;;0.82;0.40;;;22.00;95.10;;;;;;5102581;28;20020;-72
2022/04/24 07:20:21;;;;;;;0.20;0.10;;;21.90;95.40;;;;;;5103756;28;20035;-72
2022/04/24 07:22:50;;;;;;;0.65;0.10;;;21.80;95.40;;;;;;5103732;27;20033;-72
2022/04/24 07:25:24;;;;;;;3.08;0.30;;;21.80;95.40;;;;;;5102746;27;20043;-72
2022/04/24 07:27:52;;;;;;;1.33;0.22;;;21.80;95.50;;;;;;5103293;27;20768;-73
2022/04/24 07:30:21;;;;;;;0.08;0.08;;;21.70;95.50;;;;;;5102772;28;20027;-73
2022/04/24 07:32:54;;;;;;;0.50;0.10;;;21.70;95.70;;;;;;5102001;27;20047;-72
2022/04/24 07:35:27;;;;;;;1.02;0.17;;;21.60;95.70;;;;;;5114395;27;20015;-73
2022/04/24 07:37:55;;;;;;;0.80;0.20;;;21.60;95.90;;;;;;5101559;27;20031;-72
2022/04/24 07:40:25;;;;;;;1.38;0.20;;;21.60;96.20;;;;;;5101509;28;20062;-73
2022/04/24 07:42:53;;;;;;;1.77;0.68;;;21.60;96.30;;;;;;5102026;27;20202;-72
2022/04/24 07:45:21;;;;;;;1.55;0.17;;;21.50;96.50;;;;;;5102865;27;20031;-71
2022/04/24 07:47:50;;;;;;;0.30;0.20;;;21.60;96.70;;;;;;5100809;28;20043;-72
2022/04/24 07:50:19;;;;;;;0.28;0.17;;;21.50;96.80;;;;;;5102930;27;20031;-73
2022/04/24 07:52:47;;;;;;;1.25;0.45;;;21.50;97.00;;;;;;5102616;27;20515;-73
2022/04/24 07:55:17;;;;;;;1.60;0.20;;;21.50;97.20;;;;;;5104596;28;20028;-73
2022/04/24 07:57:48;;;;;;;7.68;0.43;;;21.50;97.20;;;;;;5099914;28;20043;-73
2022/04/24 08:00:17;;;;;;;0.85;0.20;;;21.50;97.40;;;;;;5101017;27;20112;-72
2022/04/24 08:03:10;;;;;;;1.75;0.32;;;21.50;97.60;;;;;;5100417;27;20030;-72
2022/04/24 08:05:42;;;;;;;1.30;0.30;;;21.50;97.90;;;;;;5102209;28;20044;-71
2022/04/24 08:08:19;;;;;;;1.42;0.40;;;21.40;98.20;;;;;;5099384;27;20020;-73
2022/04/24 08:10:48;;;;;;;0.95;0.63;;;21.30;98.70;;;;;;5102947;27;20039;-72
2022/04/24 08:13:16;;;;;;;0.95;0.30;;;21.30;98.60;;;;;;5129477;27;20259;-73
2022/04/24 08:15:44;;;;;;;3.97;1.13;;;21.30;98.70;;;;;;5112881;27;20059;-72
2022/04/24 08:18:11;;;;;;;0.60;0.30;;;21.40;98.60;;;;;;5099884;27;20036;-72
2022/04/24 08:20:40;;;;;;;1.30;0.20;;;21.40;98.70;;;;;;5103138;28;20113;-72
2022/04/24 08:23:09;;;;;;;1.38;0.40;;;21.50;98.60;;;;;;5100623;28;20477;-72
2022/04/24 08:25:37;;;;;;;1.35;0.28;;;21.50;98.70;;;;;;5101239;28;20520;-73
2022/04/24 08:28:08;;;;;;;1.75;0.50;;;21.40;99.00;;;;;;5100992;28;20023;-72
2022/04/24 08:30:38;;;;;;;1.13;0.60;;;21.50;98.80;;;;;;5102300;27;20028;-72
2022/04/24 08:33:06;;;;;;;1.63;0.50;;;21.50;98.90;;;;;;5101824;27;20031;-73
2022/04/24 08:35:33;;;;;;;0.45;0.20;;;21.50;98.90;;;;;;5102075;28;22139;-73
2022/04/24 08:38:01;;;;;;;0.95;0.40;;;21.40;99.20;;;;;;5100163;27;20019;-74
2022/04/24 08:40:28;;;;;;;0.65;0.25;;;21.30;99.30;;;;;;5102566;28;20569;-72
2022/04/24 08:42:56;;;;;;;0.65;0.20;;;21.20;99.40;;;;;;5099257;28;20032;-72
2022/04/24 08:45:29;;;;;;;1.77;0.30;;;21.30;99.40;;;;;;5101355;28;20143;-74
2022/04/24 08:47:57;;;;;;;1.48;0.57;;;21.30;99.50;;;;;;5100523;27;20048;-72
2022/04/24 08:50:29;;;;;;;1.95;0.40;;;21.20;99.80;;;;;;5102217;28;20027;-72
2022/04/24 08:52:57;;;;;;;0.93;0.43;;;21.10;99.80;;;;;;5100657;28;20055;-72
2022/04/24 08:55:30;;;;;;;1.40;0.63;;;21.00;99.90;;;;;;5081073;27;20055;-73
2022/04/24 08:57:58;;;;;;;3.58;1.88;;;20.90;99.90;;;;;;5099389;27;20120;-71
2022/04/24 09:00:28;;;;;;;3.08;1.67;;;20.90;99.90;;;;;;5099667;28;20046;-70
2022/04/24 09:02:59;;;;;;;4.20;0.70;;;20.80;99.90;;;;;;5097641;27;20032;-71
2022/04/24 09:05:31;;;;;;;4.00;0.60;;;20.80;99.90;;;;;;5100703;28;20138;-71
2022/04/24 09:08:12;;;;;;;2.13;0.80;;;20.80;99.90;;;;;;5099949;27;20168;-72
2022/04/24 09:10:52;;;;;;;1.00;0.50;;;20.70;99.90;;;;;;5101634;27;20122;-72
2022/04/24 09:14:24;;;;;;;1.23;0.43;;;20.70;99.90;;;;;;5101925;28;22011;-72
2022/04/24 09:16:38;;;;;;;1.17;0.40;;;20.60;99.90;;;;;;5089641;27;20114;-74
2022/04/24 09:19:20;;;;;;;1.45;0.55;;;20.40;99.90;;;;;;5101830;28;20102;-72
2022/04/24 09:21:48;;;;;;;2.13;0.80;;;20.30;99.90;;;;;;5099783;28;20031;-73
2022/04/24 09:24:16;;;;;;;2.42;0.50;;;20.20;99.90;;;;;;5099721;28;20019;-73
2022/04/24 09:26:56;;;;;;;2.78;0.65;;;20.20;99.90;;;;;;5098515;28;20040;-73
2022/04/24 09:29:24;;;;;;;1.63;0.47;;;20.10;99.90;;;;;;5101139;28;20032;-72
2022/04/24 09:31:53;;;;;;;2.58;0.70;;;20.10;99.90;;;;;;5099042;28;20024;-74
2022/04/24 09:34:21;;;;;;;3.83;1.20;;;20.10;99.90;;;;;;5101264;28;20039;-72
2022/04/24 09:37:01;;;;;;;1.02;0.55;;;20.10;99.90;;;;;;5099875;28;20031;-72
2022/04/24 09:39:30;;;;;;;1.55;0.50;;;20.10;99.90;;;;;;5102217;28;20042;-72
2022/04/24 09:42:11;;;;;;;3.45;0.70;;;20.10;99.90;;;;;;5099804;28;20067;-72
2022/04/24 09:44:43;;;;;;;1.20;0.70;;;20.00;99.90;;;;;;5099781;28;20023;-73
2022/04/24 09:47:11;;;;;;;1.75;0.60;;;20.00;99.90;;;;;;5094944;28;20555;-73
2022/04/24 09:49:46;;;;;;;1.17;0.45;;;20.00;99.90;;;;;;5101076;28;20039;-73
2022/04/24 09:52:16;;;;;;;1.35;0.90;;;20.00;99.90;;;;;;5099326;28;20028;-73
2022/04/24 09:54:45;;;;;;;2.63;0.30;;;20.00;99.90;;;;;;5100874;28;20484;-72
2022/04/24 09:57:14;;;;;;;1.23;0.30;;;20.00;99.90;;;;;;5099730;28;20474;-73
2022/04/24 09:59:44;;;;;;;0.93;0.40;;;19.90;99.90;;;;;;5100994;28;20032;-71
2022/04/24 10:02:14;;;;;;;2.83;1.08;;;19.70;99.90;;;;;;5099252;28;20020;-74
2022/04/24 10:04:42;;;;;;;1.85;0.75;;;19.50;99.90;;;;;;5100401;28;20027;-73
2022/04/24 10:07:14;;;;;;;2.25;0.70;;;19.50;99.90;;;;;;5100302;28;20062;-72
2022/04/24 10:09:45;;;;;;;1.73;0.57;;;19.50;99.90;;;;;;5099449;28;20114;-73
2022/04/24 10:12:17;;;;;;;1.42;0.68;;;19.40;99.90;;;;;;5098272;28;20089;-74
2022/04/24 10:15:13;;;;;;;4.47;0.88;;;19.30;99.90;;;;;;5098670;28;20503;-74
2022/04/24 10:17:52;;;;;;;1.30;0.60;;;19.20;99.90;;;;;;5121924;28;20027;-74
2022/04/24 10:21:11;;;;;;;1.20;0.70;;;19.20;99.90;;;;;;5098504;28;20062;-73
2022/04/24 10:23:39;;;;;;;2.08;0.50;;;19.10;99.90;;;;;;5104991;28;20994;-73
2022/04/24 10:26:23;;;;;;;2.45;1.20;;;19.00;99.90;;;;;;5102578;28;21046;-72
2022/04/24 10:29:01;;;;;;;2.47;0.70;;;18.90;99.90;;;;;;5101706;27;20031;-73
2022/04/24 10:31:29;;;;;;;1.08;0.60;;;19.00;99.90;;;;;;5103744;27;20028;-74
2022/04/24 10:33:57;;;;;;;1.67;0.77;;;18.90;99.90;;;;;;5104449;28;20462;-74
2022/04/24 10:36:24;;;;;;;3.00;0.63;;;18.80;99.90;;;;;;5102400;27;20019;-73
2022/04/24 10:39:00;;;;;;;2.47;0.50;;;18.80;99.90;;;;;;5107187;28;20493;-73
2022/04/24 10:41:32;;;;;;;1.77;0.57;;;18.70;99.90;;;;;;5102127;27;20494;-72
2022/04/24 10:44:15;;;;;;;1.10;0.68;;;18.70;99.90;;;;;;5103694;28;21724;-73
2022/04/24 10:46:47;;;;;;;2.28;0.57;;;18.50;99.90;;;;;;5103364;27;20027;-71
2022/04/24 10:49:16;;;;;;;2.67;0.60;;;18.50;99.90;;;;;;5101472;28;20028;-73
2022/04/24 10:51:57;;;;;;;1.08;0.50;;;18.50;99.90;;;;;;5103834;27;20055;-73
2022/04/24 10:54:44;;;;;;;1.17;0.50;;;18.50;99.90;;;;;;5104892;27;20040;-72
2022/04/24 10:57:23;;;;;;;0.98;0.32;;;18.50;99.90;;;;;;5102549;27;20390;-74
2022/04/24 10:59:55;;;;;;;1.10;0.40;;;18.50;99.90;;;;;;5103111;28;20032;-70
2022/04/24 11:02:33;;;;;;;3.10;1.10;;;18.50;99.90;;;;;;5102393;28;20061;-74
2022/04/24 11:05:08;;;;;;;2.35;0.50;;;18.50;99.90;;;;;;5104463;27;20032;-73
2022/04/24 11:07:35;;;;;;;1.87;0.33;;;18.40;99.90;;;;;;5102053;28;20096;-73
2022/04/24 11:10:11;;;;;;;0.85;0.40;;;18.40;99.90;;;;;;5104483;27;20023;-72
2022/04/24 11:12:39;;;;;;;;;;;18.30;99.90;;;;;;5102159;28;20102;-76
2022/04/24 11:15:09;;;;;;;0.32;0.20;;;18.20;99.90;;;;;;5102417;28;19915;-74
2022/04/24 11:17:37;;;;;;;1.42;0.40;;;18.20;99.90;;;;;;5102402;28;20075;-74
2022/04/24 11:20:09;;;;;;;1.23;0.55;;;18.30;99.90;;;;;;5110705;27;20026;-72
2022/04/24 11:22:55;;;;;;;0.20;0.10;;;18.30;99.90;;;;;;5124025;27;20438;-73
2022/04/24 11:25:25;;;;;;;1.45;0.50;;;18.20;99.90;;;;;;5093028;28;20381;-73
2022/04/24 11:28:01;;;;;;;0.28;0.20;;;18.20;99.90;;;;;;5117440;27;20039;-73
2022/04/24 11:30:33;;;;;;;0.82;0.50;;;18.10;99.90;;;;;;5096238;28;20040;-72
2022/04/24 11:33:06;;;;;;;0.20;0.10;;;18.10;99.90;;;;;;5125918;27;20418;-73
2022/04/24 11:35:36;;;;;;;0.63;0.40;;;18.00;99.90;;;;;;5104133;27;20023;-73
2022/04/24 11:38:05;;;;;;;0.40;0.40;;;17.90;99.90;;;;;;5103899;27;20039;-73
2022/04/24 11:40:38;;;;;;;0.10;0.10;;;18.00;99.90;;;;;;5098798;27;20036;-75
2022/04/24 11:43:09;;;;;;;0.45;0.10;;;17.90;99.90;;;;;;5111064;28;20020;-74
2022/04/24 11:51:26;;;;;;;0.20;0.10;;;18.00;99.90;;;;;;5085052;27;20377;-73
2022/04/24 11:53:54;;;;;;;0.10;0.10;;;18.00;99.90;;;;;;5093151;28;20197;-74
2022/04/24 11:56:22;;;;;;;0.00;0.00;;;18.10;99.90;;;;;;5108906;28;20027;-74
2022/04/24 11:58:49;;;;;;;0.47;0.00;;;18.10;99.90;;;;;;5112131;28;20034;-74
2022/04/24 12:01:18;;;;;;;1.38;0.00;;;18.10;99.90;;;;;;5100205;27;20204;-74
2022/04/24 12:03:46;;;;;;;0.15;0.00;;;18.00;99.90;;;;;;5103424;28;20047;-75
2022/04/24 12:06:14;;;;;;;0.00;0.00;;;18.00;99.90;;;;;;5099583;27;20236;-75
2022/04/24 12:08:46;;;;;;;1.98;0.10;;;18.00;99.90;;;;;;5102239;28;20063;-74
2022/04/24 12:11:27;;;;;;;0.60;0.05;;;17.90;99.90;;;;;;5094480;27;20389;-75
2022/04/24 12:14:11;;;;;;;0.00;0.00;;;17.90;99.90;;;;;;5110089;28;20463;-74
2022/04/24 12:16:47;;;;;;;1.90;0.10;;;17.90;99.90;;;;;;5100203;28;20030;-73
2022/04/24 12:19:19;;;;;;;0.25;0.10;;;17.90;99.90;;;;;;5101350;27;20059;-74
2022/04/24 12:21:51;;;;;;;0.30;0.15;;;17.90;99.90;;;;;;5101514;28;20517;-74
2022/04/24 12:24:19;;;;;;;0.43;0.17;;;17.90;99.90;;;;;;5099336;28;20034;-73
2022/04/24 12:26:53;;;;;;;1.10;0.22;;;17.90;99.90;;;;;;5110243;27;20439;-73
2022/04/24 12:29:22;;;;;;;0.45;0.30;;;17.90;99.90;;;;;;5109210;28;20052;-71
2022/04/24 12:31:49;;;;;;;0.20;0.20;;;17.90;99.90;;;;;;5098650;27;20434;-74
2022/04/24 12:34:17;;;;;;;1.95;0.20;;;17.90;99.90;;;;;;5105051;27;20071;-72
2022/04/24 12:36:54;;;;;;;0.30;0.20;;;17.80;99.90;;;;;;5104412;27;20535;-73
2022/04/24 12:39:28;;;;;;;0.25;0.10;;;17.80;99.90;;;;;;5098953;27;20032;-73
2022/04/24 12:41:56;;;;;;;0.40;0.20;;;17.80;99.90;;;;;;5103678;27;20031;-73
2022/04/24 12:44:23;;;;;;;0.65;0.20;;;17.80;99.90;;;;;;5113641;27;20032;-73
2022/04/24 12:46:50;;;;;;;0.13;0.13;;;17.80;99.90;;;;;;5108077;27;20390;-73
2022/04/24 12:49:32;;;;;;;0.08;0.08;;;17.80;99.90;;;;;;5104186;28;20032;-72
2022/04/24 12:51:59;;;;;;;0.30;0.10;;;17.80;99.90;;;;;;5106101;27;20031;-72
2022/04/24 12:54:27;;;;;;;0.43;0.10;;;17.80;99.90;;;;;;5102116;27;20036;-73
2022/04/24 12:56:55;;;;;;;1.63;0.17;;;17.90;99.90;;;;;;5097105;27;20036;-74
2022/04/24 12:59:22;;;;;;;1.15;0.10;;;17.90;99.90;;;;;;5097102;27;20032;-72
2022/04/24 13:01:52;;;;;;;0.43;0.10;;;17.90;99.90;;;;;;5099273;27;20105;-74
2022/04/24 13:04:19;;;;;;;0.15;0.00;;;17.90;99.90;;;;;;5109735;27;20039;-73
2022/04/24 13:06:48;;;;;;;0.00;0.00;;;17.90;99.90;;;;;;5111604;27;20093;-73